AirNav   Bose ProFlight Series 2 Headset
 
 1292 users online  

6N7 New York Skyports Inc Seaplane Base
New York, New York, USA

GOING TO NEW YORK?


FAA INFORMATION EFFECTIVE 02 JANUARY 2020

Location

FAA Identifier: 6N7
Lat/Long: 40-44-02.3670N 073-58-22.4990W
40-44.039450N 073-58.374983W
40.7339908,-73.9729164
(estimated)
Elevation: 0 ft. / 0 m (estimated)
Variation: 13W (1985)
Time zone: UTC -5 (UTC -4 during Daylight Saving Time)
Zip code: 10199

Seaplane Base Operations

Seaplane Base use: Open to the public
Activation date: 12/1946
Control tower: no
ARTCC: NEW YORK CENTER
FSS: NEW YORK FLIGHT SERVICE STATION
NOTAMs facility: ISP (NOTAM-D service available)
Attendance: 0800-DUSK
Wind indicator: yes
Segmented circle: no
Landing fee: yes

Seaplane Base Communications

CTAF: 122.9
WX AWOS-3PT at JRB (2.6 nm SW): 128.175 (212-425-1534)
WX ASOS at LGA (5 nm NE): PHONE 718-672-6317
WX ASOS at TEB (8 nm NW): 132.025 (201-393-0855)
WX ASOS at EWR (9 nm W): PHONE 973-621-2892
WX ASOS at JFK (10 nm SE): 128.725 (718-656-0956)
WX AWOS-3 at LDJ (14 nm SW): 124.025 (908-862-7383)
WX ASOS at CDW (16 nm NW): 135.5 (973-575-4417)

Nearby radio navigation aids

VOR radial/distance  VOR name  Freq  Var
LGAr250/5.6LA GUARDIA VOR/DME113.1012W
TEBr160/8.0TETERBORO VOR/DME108.4011W
CRIr345/8.1CANARSIE VOR/DME112.3011W
JFKr315/11.0KENNEDY VOR/DME115.9012W
COLr030/26.7COLTS NECK VOR/DME115.4011W
DPKr275/30.6DEER PARK VOR/DME117.7012W
SAXr139/32.5SPARTA VORTAC115.7011W
SBJr085/36.1SOLBERG VOR/DME112.9010W
CMKr220/37.3CARMEL VOR/DME116.6012W
BWZr107/38.8BROADWAY VOR/DME114.2011W
RBVr047/39.8ROBBINSVILLE VORTAC113.8010W

 
NDB name  Hdg/Dist  Freq  Var  ID
TORBY132/8.421412WTE - .
CHATHAM104/20.825413WCAT -.-. .- -
BABYLON292/27.027514WBBN -... -... -.

Seaplane Base Services

Runway Information

Runway N/S

Dimensions: 10000 x 1000 ft. / 3048 x 305 m
Surface: water
RUNWAY N  RUNWAY S
Traffic pattern: leftleft

Seaplane Base Ownership and Management from official FAA records

Ownership: Publicly-owned
Owner: NEW YORK CITY - ECONOMIC DEV CORP
2430 FDR DRIVE - EAST SERVICE RD
NEW YORK, NY 10010
Phone (212) 481-4806
Manager: TORRELL MILLER
2430 FDR DRIVE - EAST SERVICE RD
NEW YORK, NY 10010
Phone (201) 214-0969

Seaplane Base Operational Statistics

Aircraft operations: avg 34/week *
100% air taxi
* for 12-month period ending 11 April 2019

Additional Remarks

E RIVER-VELOCITY 2.6MPH IN SSW DRCTN. HVY BOAT TFC IN RIVER.
PILOTS REQUIRED TO TAXI 1000' OFF-SHORE ON MANHATAN SIDE BEFORE BEGINNING TAKEOFF.
PILOTS REQUIRED NOT TO FLY OVER THE 59TH STREET BRIDGE.
3 BLADED PROPS REQ'D ON ALL SEAPLANES.
PILOTS MUST COMPLETE A PROVING FLIGHT W/AN AUTHORIZED MEMBER OF THE N.E. SEAPLANES PILOT'S ASSOC. PRIOR TO SPB USE
NO TIE-DOWNS AND NO OVERNIGHT STAYS AVBL.
FOR CD CTC NEW YORK APCH AT 800-645-3206.
CH13 (VHF 165.65) IS MONITORED AT SEAPORT FOR INBD BOAT TFC AND INTERSHIP NAV SAFETY.

Instrument Procedures

There are no published instrument procedures at 6N7.

Some nearby airports with instrument procedures:

6N5 - East 34th Street Heliport (1 nm N)
KJRA - West 30th St Heliport (2 nm NW)
KJRB - Downtown Manhattan/Wall Street Heliport (3 nm SW)
KLGA - LaGuardia Airport (5 nm NE)
KTEB - Teterboro Airport (8 nm NW)
KEWR - Newark Liberty International Airport (9 nm W)
KJFK - John F Kennedy International Airport (10 nm SE)
KLDJ - Linden Airport (14 nm SW)
KCDW - Essex County Airport (16 nm NW)
 
Loc | Ops | Rwys | IFR | FBO | Links
Com | Nav | Svcs | Stats | Notes
Area around 6N7 (New York Skyports Inc Seaplane Base)
 
Road maps at: MapQuest Bing Google
 
Aerial photo
WARNING: Photo may not be current or correct
Aerial photo of 6N7 (New York Skyports Inc Seaplane Base)
Photo by Dave Lu
Photo taken 28-Jun-2013
looking north.

Do you have a better or more recent aerial photo of New York Skyports Inc Seaplane Base that you would like to share? If so, please send us your photo.

 
Sectional chart

 
Airport distance calculator
Flying to New York Skyports Inc Seaplane Base? Find the distance to fly.

From to 6N7

Sunrise and sunset
Times for 24-Jan-2020
 Local
(UTC-5)
 Zulu
(UTC)
Morning civil twilight06:4411:44
Sunrise07:1412:14
Sunset17:0222:02
Evening civil twilight17:3222:32

Current date and time
Zulu (UTC)  24-Jan-2020 13:50:12
Local (UTC-5)  24-Jan-2020 08:50:12
 
METAR
KJRB 
3nm SW 
241256Z AUTO 06006KT CLR 04/01 A3038 RMK AO2 SLP288 T00390006 PWINO
KNYC 
3nm N 
241251Z AUTO 8SM CLR 03/M02 A3040 RMK AO2 SLP285 T00331022 $
KLGA 
5nm NE 
241251Z 06006KT 10SM FEW160 BKN250 02/M01 A3038 RMK AO2 SLP287 T00221006
KTEB 
9nm NW 
241251Z 03003KT 8SM CLR 01/M01 A3038 RMK AO2 SLP286 T00111006
KEWR 
9nm W 
241251Z 01007KT 9SM BKN250 01/M04 A3038 RMK AO2 SLP285 T00111039
KJFK 
11nm SE 
241251Z 03003KT 9SM FEW140 SCT250 01/01 A3039 RMK AO2 SLP289 T00110006 $
KLDJ 
14nm SW 
241335Z AUTO 00000KT 10SM CLR 01/M04 A3038 RMK AO2 T00121042
KCDW 
17nm NW 
241253Z 00000KT 10SM CLR M02/M05 A3039 RMK AO2 SLP298 T10171050
TAF
KLGA 
5nm NE 
241139Z 2412/2518 07007KT P6SM FEW025 SCT250 FM241900 09007KT P6SM SCT200 FM250300 07009KT P6SM SCT090 BKN120 FM250600 07009KT P6SM SCT006 BKN020 FM251000 07014KT 4SM BR VCSH SCT006 OVC010 FM251300 07017KT 4SM -RA BR OVC010 FM251700 07019G24KT 4SM -RA BR OVC010 WS020/12050KT
KTEB 
9nm NW 
241139Z 2412/2518 VRB04KT P6SM FEW025 SCT250 FM242000 08005KT P6SM FEW150 SCT250 FM250200 06006KT P6SM SCT120 BKN200 FM250800 05007KT P6SM SCT005 OVC025 FM251000 05008KT 4SM BR VCSH SCT005 OVC010 FM251300 05013KT 4SM -RA BR OVC010 FM251700 05015G20KT 4SM -RA BR OVC010 WS020/12050KT
KEWR 
9nm W 
241139Z 2412/2518 04004KT P6SM FEW025 SCT250 FM241900 07007KT P6SM FEW150 SCT250 FM250600 05008KT P6SM SCT006 BKN020 FM251000 04013KT 4SM BR VCSH SCT006 OVC010 FM251300 04016KT 4SM -RA BR OVC010 FM251700 04018G23KT 4SM -RA BR OVC010 WS020/12050KT
KJFK 
11nm SE 
241139Z 2412/2518 04005KT P6SM FEW030 SCT250 FM241500 07006KT P6SM BKN200 FM241800 10010KT P6SM FEW120 SCT200 FM250300 07010KT P6SM SCT090 BKN120 FM250600 07010KT P6SM SCT006 BKN020 FM251000 09015KT 4SM BR VCSH SCT005 OVC010 FM251300 09018KT 4SM -RA BR OVC010 FM251700 09020G25KT 4SM -RA BR OVC010 WS020/12050KT
NOTAMs
Click for the latest NOTAMs
NOTAMs are issued by the DoD/FAA and will open in a separate window not controlled by AirNav.

 

 
 

Would you like to see your business listed on this page?

 If your business provides an interesting product or service to pilots, flight crews, aircraft, or users of the New York Skyports Inc Seaplane Base, you should consider listing it here.  To start the listing process, click on the button below
 
Add a business
 

Other Pages about New York Skyports Inc Seaplane Base

Update a link
 
Copyright © AirNav, LLC. All rights reserved. Privacy Policy  Contact